Time;durP1;ratioP1;P1;durP2;ratioP2;P2;SDS_P1;SDS_P2;PMS_P1;PMS_P2;Temp;Humidity;BMP_temperature;BMP_pressure;BME280_temperature;BME280_humidity;BME280_pressure;Samples;Min_cycle;Max_cycle;Signal;HPM_P1;HPM_P2
2022/05/25 00:00:38;;;;;;;1.00;0.63;;;19.70;55.40;;;;;;5051279;28;20505;-68
2022/05/25 00:03:04;;;;;;;0.60;0.60;;;19.60;55.30;;;;;;5051482;28;20575;-67
2022/05/25 00:05:33;;;;;;;0.93;0.93;;;19.60;55.40;;;;;;5050547;28;20212;-67
2022/05/25 00:07:59;;;;;;;0.73;0.73;;;19.60;55.30;;;;;;5051157;28;20175;-66
2022/05/25 00:10:24;;;;;;;0.75;0.65;;;19.60;55.40;;;;;;5051431;28;20684;-67
2022/05/25 00:12:50;;;;;;;0.93;0.77;;;19.60;55.50;;;;;;5050196;28;20528;-68
2022/05/25 00:15:15;;;;;;;0.93;0.77;;;19.60;55.40;;;;;;5051260;28;20195;-68
2022/05/25 00:17:41;;;;;;;1.20;0.75;;;19.60;55.50;;;;;;5051113;28;20290;-68
2022/05/25 00:20:07;;;;;;;0.70;0.70;;;19.60;55.50;;;;;;5050511;28;20229;-68
2022/05/25 00:22:46;;;;;;;0.70;0.70;;;19.60;55.50;;;;;;5051022;28;20183;-68
2022/05/25 00:25:14;;;;;;;1.38;0.70;;;19.60;55.50;;;;;;5050691;28;20185;-67
2022/05/25 00:27:40;;;;;;;0.70;0.70;;;19.60;55.60;;;;;;5051291;28;20260;-67
2022/05/25 00:30:07;;;;;;;0.60;0.60;;;19.60;55.60;;;;;;5051546;28;20274;-67
2022/05/25 00:32:33;;;;;;;0.75;0.60;;;19.60;55.60;;;;;;5050563;28;20179;-66
2022/05/25 00:34:58;;;;;;;0.90;0.77;;;19.50;55.60;;;;;;5050759;28;20548;-67
2022/05/25 00:37:24;;;;;;;0.77;0.77;;;19.50;55.60;;;;;;5053343;28;20598;-67
2022/05/25 00:39:49;;;;;;;0.85;0.82;;;19.50;55.60;;;;;;5054086;28;20207;-67
2022/05/25 00:42:16;;;;;;;0.60;0.60;;;19.60;55.70;;;;;;5055021;28;20220;-68
2022/05/25 00:44:41;;;;;;;0.73;0.73;;;19.50;55.60;;;;;;5067885;28;20186;-67
2022/05/25 00:47:07;;;;;;;0.75;0.70;;;19.50;55.70;;;;;;5074368;28;20170;-67
2022/05/25 00:49:33;;;;;;;1.33;0.60;;;19.50;55.70;;;;;;5056806;28;20706;-67
2022/05/25 00:51:59;;;;;;;0.85;0.68;;;19.50;55.70;;;;;;5056411;28;20661;-67
2022/05/25 00:54:38;;;;;;;0.50;0.50;;;19.50;55.70;;;;;;5057306;28;20321;-67
2022/05/25 00:57:07;;;;;;;0.85;0.75;;;19.50;55.80;;;;;;5053710;28;20174;-67
2022/05/25 00:59:34;;;;;;;1.05;0.68;;;19.50;55.80;;;;;;5053038;28;20361;-68
2022/05/25 01:02:00;;;;;;;1.17;0.63;;;19.50;55.80;;;;;;5036315;28;20228;-68
2022/05/25 01:04:26;;;;;;;0.70;0.70;;;19.50;55.90;;;;;;5054412;28;20673;-68
2022/05/25 01:07:25;;;;;;;0.70;0.70;;;19.40;55.90;;;;;;5054305;28;20312;-67
2022/05/25 01:09:55;;;;;;;0.60;0.60;;;19.40;55.90;;;;;;5054289;28;20267;-67
2022/05/25 01:12:32;;;;;;;0.80;0.70;;;19.40;55.90;;;;;;5054529;28;20179;-67
2022/05/25 01:15:09;;;;;;;0.80;0.80;;;19.40;55.90;;;;;;5053485;28;20166;-67
2022/05/25 01:17:40;;;;;;;0.77;0.77;;;19.40;55.90;;;;;;5052904;28;20182;-67
2022/05/25 01:20:20;;;;;;;0.73;0.73;;;19.40;56.00;;;;;;5053784;28;20269;-68
2022/05/25 01:23:04;;;;;;;0.65;0.65;;;19.40;56.00;;;;;;5051811;28;20175;-68
2022/05/25 01:26:03;;;;;;;0.52;0.52;;;19.40;55.90;;;;;;5052699;28;20692;-68
2022/05/25 01:28:40;;;;;;;1.20;0.80;;;19.40;56.00;;;;;;5053345;28;20172;-68
2022/05/25 01:31:09;;;;;;;1.27;0.65;;;19.40;56.00;;;;;;5054058;28;20185;-67
2022/05/25 01:33:45;;;;;;;0.70;0.70;;;19.40;56.00;;;;;;5052249;28;20253;-67
2022/05/25 01:36:20;;;;;;;1.80;0.73;;;19.30;56.00;;;;;;5035806;28;20292;-68
2022/05/25 01:38:52;;;;;;;0.73;0.73;;;19.30;56.10;;;;;;5052357;28;20171;-67
2022/05/25 01:41:41;;;;;;;0.73;0.70;;;19.30;56.10;;;;;;5036445;28;20288;-67
2022/05/25 01:44:15;;;;;;;1.52;0.77;;;19.30;56.10;;;;;;5060446;28;20171;-68
2022/05/25 01:46:48;;;;;;;0.68;0.60;;;19.30;56.10;;;;;;5056604;28;20182;-68
2022/05/25 01:49:16;;;;;;;0.70;0.70;;;19.30;56.10;;;;;;5055570;28;20281;-68
2022/05/25 01:51:47;;;;;;;0.70;0.70;;;19.30;56.20;;;;;;5054910;28;20178;-68
2022/05/25 01:54:14;;;;;;;0.98;0.98;;;19.30;56.20;;;;;;5042087;28;20179;-68
2022/05/25 01:56:40;;;;;;;0.70;0.70;;;19.30;56.20;;;;;;5034499;28;20560;-68
2022/05/25 01:59:07;;;;;;;1.05;0.70;;;19.30;56.10;;;;;;5035219;28;20285;-68
2022/05/25 02:01:32;;;;;;;0.73;0.73;;;19.30;56.10;;;;;;5035389;28;20214;-68
2022/05/25 02:07:18;;;;;;;0.85;0.80;;;19.20;56.10;;;;;;5053029;28;20237;-68
2022/05/25 02:10:16;;;;;;;0.73;0.70;;;19.20;56.20;;;;;;5052054;28;20198;-68
2022/05/25 02:12:57;;;;;;;0.70;0.70;;;19.20;56.20;;;;;;5051033;28;20179;-68
2022/05/25 02:15:58;;;;;;;0.70;0.70;;;19.20;56.30;;;;;;5053030;28;20672;-68
2022/05/25 02:18:41;;;;;;;0.80;0.80;;;19.20;56.20;;;;;;5052005;28;20197;-68
2022/05/25 02:21:25;;;;;;;0.68;0.68;;;19.20;56.30;;;;;;5051595;28;20289;-68
2022/05/25 02:23:58;;;;;;;0.60;0.60;;;19.20;56.30;;;;;;5052927;28;20167;-68
2022/05/25 02:26:27;;;;;;;0.63;0.63;;;19.20;56.20;;;;;;5035225;28;20186;-68
2022/05/25 02:29:12;;;;;;;0.70;0.70;;;19.10;56.30;;;;;;5051477;28;20262;-67
2022/05/25 02:31:42;;;;;;;0.80;0.80;;;19.10;56.20;;;;;;5035749;28;20262;-67
2022/05/25 02:34:09;;;;;;;0.70;0.70;;;19.10;56.30;;;;;;5035311;28;20171;-68
2022/05/25 02:36:35;;;;;;;0.80;0.80;;;19.10;56.20;;;;;;5051470;28;20209;-68
2022/05/25 02:39:05;;;;;;;0.60;0.60;;;19.10;56.30;;;;;;5033864;28;20626;-68
2022/05/25 02:41:32;;;;;;;1.42;0.73;;;19.10;56.30;;;;;;5051267;28;20214;-68
2022/05/25 02:43:58;;;;;;;0.70;0.60;;;19.10;56.30;;;;;;5058331;28;20174;-68
2022/05/25 02:46:23;;;;;;;0.75;0.70;;;19.10;56.30;;;;;;5071595;28;20551;-68
2022/05/25 02:48:49;;;;;;;0.60;0.50;;;19.10;56.30;;;;;;5072473;28;20566;-68
2022/05/25 02:51:15;;;;;;;0.50;0.50;;;19.10;56.30;;;;;;5072676;28;20613;-67
2022/05/25 02:53:40;;;;;;;0.60;0.60;;;19.10;56.30;;;;;;5069811;28;20179;-68
2022/05/25 02:56:06;;;;;;;0.50;0.50;;;19.10;56.40;;;;;;5052220;28;20178;-68
2022/05/25 02:58:31;;;;;;;0.60;0.60;;;19.10;56.40;;;;;;5051997;28;20579;-69
2022/05/25 03:00:57;;;;;;;0.73;0.73;;;19.10;56.40;;;;;;5050167;28;20298;-68
2022/05/25 03:03:22;;;;;;;0.95;0.80;;;19.00;56.40;;;;;;5052331;28;20175;-68
2022/05/25 03:05:48;;;;;;;0.70;0.70;;;19.00;56.30;;;;;;5051967;28;20175;-68
2022/05/25 03:08:13;;;;;;;0.80;0.80;;;19.00;56.30;;;;;;5051369;28;20262;-68
2022/05/25 03:10:39;;;;;;;1.35;0.85;;;19.00;56.40;;;;;;5051878;28;20209;-68
2022/05/25 03:13:08;;;;;;;0.90;0.90;;;19.00;56.40;;;;;;5051956;28;20243;-68
2022/05/25 03:15:33;;;;;;;0.70;0.70;;;19.00;56.40;;;;;;5051232;28;20183;-68
2022/05/25 03:17:59;;;;;;;1.20;0.70;;;19.00;56.40;;;;;;5051883;28;20167;-68
2022/05/25 03:20:25;;;;;;;0.60;0.60;;;19.00;56.40;;;;;;5052019;28;20590;-68
2022/05/25 03:22:50;;;;;;;0.77;0.77;;;19.00;56.50;;;;;;5051029;28;20481;-68
2022/05/25 03:25:16;;;;;;;1.08;0.77;;;18.90;56.40;;;;;;5051832;28;20201;-68
2022/05/25 03:27:43;;;;;;;0.75;0.60;;;18.90;56.40;;;;;;5051644;28;20476;-68
2022/05/25 03:30:09;;;;;;;0.70;0.70;;;19.00;56.50;;;;;;5051046;28;20175;-68
2022/05/25 03:32:35;;;;;;;0.77;0.68;;;18.90;56.40;;;;;;5051629;28;20232;-67
2022/05/25 03:35:02;;;;;;;0.90;0.90;;;18.90;56.40;;;;;;5051161;28;20171;-68
2022/05/25 03:37:27;;;;;;;0.70;0.70;;;18.90;56.40;;;;;;5051810;28;20235;-68
2022/05/25 03:39:53;;;;;;;0.70;0.70;;;18.90;56.40;;;;;;5051305;28;20674;-67
2022/05/25 03:42:19;;;;;;;0.98;0.80;;;18.90;56.50;;;;;;5050933;28;20181;-69
2022/05/25 03:44:44;;;;;;;0.73;0.73;;;18.90;56.40;;;;;;5049652;28;20171;-68
2022/05/25 03:47:09;;;;;;;0.63;0.63;;;18.90;56.50;;;;;;5051545;28;20179;-68
2022/05/25 03:49:35;;;;;;;0.80;0.80;;;18.90;56.50;;;;;;5050575;28;20516;-68
2022/05/25 03:52:01;;;;;;;0.80;0.80;;;18.90;56.50;;;;;;5051680;28;20187;-68
2022/05/25 03:54:26;;;;;;;0.70;0.70;;;18.90;56.50;;;;;;5051323;28;20469;-68
2022/05/25 03:56:53;;;;;;;0.70;0.70;;;18.90;56.50;;;;;;5050546;28;20175;-69
2022/05/25 03:59:18;;;;;;;0.60;0.60;;;18.90;56.50;;;;;;5051106;28;20227;-69
2022/05/25 04:01:44;;;;;;;0.60;0.60;;;18.90;56.50;;;;;;5051290;28;20395;-69
2022/05/25 04:04:10;;;;;;;1.05;1.02;;;18.90;56.50;;;;;;5050933;28;20186;-69
2022/05/25 04:06:35;;;;;;;0.60;0.60;;;18.90;56.50;;;;;;5050988;28;20650;-68
2022/05/25 04:09:02;;;;;;;0.95;0.88;;;18.90;56.50;;;;;;5051238;28;20728;-68
2022/05/25 04:11:27;;;;;;;0.70;0.70;;;18.80;56.50;;;;;;5050433;28;20634;-68
2022/05/25 04:13:53;;;;;;;1.05;0.73;;;18.90;56.50;;;;;;5051171;28;20270;-68
2022/05/25 04:16:18;;;;;;;0.82;0.70;;;18.90;56.50;;;;;;5051631;28;20203;-67
2022/05/25 04:18:44;;;;;;;0.80;0.80;;;18.80;56.40;;;;;;5050354;28;20214;-69
2022/05/25 04:21:09;;;;;;;0.70;0.70;;;18.90;56.50;;;;;;5051347;28;20242;-68
2022/05/25 04:23:35;;;;;;;0.70;0.70;;;18.80;56.40;;;;;;5051111;28;20167;-68
2022/05/25 04:26:00;;;;;;;0.70;0.60;;;18.90;56.50;;;;;;5050494;28;20496;-68
2022/05/25 04:28:26;;;;;;;0.60;0.60;;;18.80;56.50;;;;;;5051137;28;20171;-68
2022/05/25 04:30:51;;;;;;;0.95;0.70;;;18.80;56.40;;;;;;5051141;28;20236;-68
2022/05/25 04:33:17;;;;;;;0.80;0.80;;;18.90;56.40;;;;;;5050454;28;20628;-68
2022/05/25 04:35:43;;;;;;;1.10;0.95;;;18.90;56.50;;;;;;5050974;28;20607;-68
2022/05/25 04:38:08;;;;;;;1.13;1.00;;;18.90;56.40;;;;;;5051188;28;20187;-68
2022/05/25 04:40:38;;;;;;;0.60;0.60;;;18.90;56.40;;;;;;5050152;28;20203;-68
2022/05/25 04:43:06;;;;;;;0.80;0.80;;;18.80;56.40;;;;;;5050778;28;20187;-68
2022/05/25 04:45:32;;;;;;;1.38;0.88;;;18.80;56.40;;;;;;5050340;28;20179;-67
2022/05/25 04:47:58;;;;;;;0.82;0.82;;;18.80;56.40;;;;;;5050755;28;20197;-68
2022/05/25 04:50:25;;;;;;;0.90;0.90;;;18.90;56.40;;;;;;5051135;28;20209;-68
2022/05/25 04:52:50;;;;;;;0.60;0.60;;;18.80;56.40;;;;;;5049957;28;20562;-68
2022/05/25 04:58:00;;;;;;;0.60;0.60;;;18.90;56.50;;;;;;5050917;28;20554;-68
2022/05/25 05:00:26;;;;;;;0.73;0.73;;;18.80;56.40;;;;;;5049791;28;20245;-68
2022/05/25 05:02:52;;;;;;;0.70;0.70;;;18.90;56.40;;;;;;5050510;28;20183;-68
2022/05/25 05:05:17;;;;;;;0.80;0.80;;;18.80;56.40;;;;;;5050916;28;20221;-68
2022/05/25 05:07:43;;;;;;;0.70;0.70;;;18.90;56.40;;;;;;5050052;28;20175;-68
2022/05/25 05:10:09;;;;;;;0.75;0.75;;;18.80;56.40;;;;;;5050668;28;20179;-68
2022/05/25 05:12:34;;;;;;;0.75;0.68;;;18.80;56.40;;;;;;5050684;28;20182;-68
2022/05/25 05:15:00;;;;;;;1.15;1.02;;;18.80;56.40;;;;;;5049978;28;20175;-68
2022/05/25 05:17:26;;;;;;;0.70;0.70;;;18.80;56.30;;;;;;5050718;28;20179;-68
2022/05/25 05:19:51;;;;;;;1.00;0.90;;;18.80;56.30;;;;;;5050365;28;20261;-68
2022/05/25 05:22:17;;;;;;;0.90;0.80;;;18.80;56.30;;;;;;5050108;28;20186;-68
2022/05/25 05:24:42;;;;;;;0.73;0.73;;;18.80;56.30;;;;;;5053069;28;20510;-68
2022/05/25 05:27:08;;;;;;;0.77;0.77;;;18.80;56.30;;;;;;5054755;28;20515;-68
2022/05/25 05:29:34;;;;;;;0.90;0.90;;;18.80;56.30;;;;;;5053960;28;20217;-68
2022/05/25 05:31:59;;;;;;;0.80;0.80;;;18.80;56.30;;;;;;5054315;28;20266;-68
2022/05/25 05:34:28;;;;;;;0.75;0.75;;;18.80;56.30;;;;;;5054163;28;20532;-68
2022/05/25 05:37:03;;;;;;;0.73;0.73;;;18.80;56.30;;;;;;5053883;28;20579;-68
2022/05/25 05:39:30;;;;;;;0.77;0.77;;;18.80;56.30;;;;;;5036475;28;20556;-68
2022/05/25 05:42:03;;;;;;;0.88;0.88;;;18.80;56.30;;;;;;5051462;28;20182;-68
2022/05/25 05:44:31;;;;;;;0.88;0.88;;;18.80;56.30;;;;;;5054157;28;20556;-68
2022/05/25 05:46:57;;;;;;;0.70;0.70;;;18.80;56.30;;;;;;5036015;28;20190;-68
2022/05/25 05:49:23;;;;;;;0.70;0.70;;;18.80;56.30;;;;;;5052097;28;20175;-68
2022/05/25 05:51:48;;;;;;;1.27;0.80;;;18.80;56.30;;;;;;5053801;28;20175;-68
2022/05/25 05:54:14;;;;;;;0.70;0.70;;;18.80;56.30;;;;;;5053726;28;20645;-68
2022/05/25 05:56:39;;;;;;;0.80;0.80;;;18.80;56.30;;;;;;5035117;28;20167;-68
2022/05/25 05:59:05;;;;;;;0.55;0.55;;;18.90;56.40;;;;;;5035749;28;20638;-68
2022/05/25 06:01:30;;;;;;;0.68;0.63;;;18.90;56.40;;;;;;5053728;28;20225;-68
2022/05/25 06:03:56;;;;;;;0.77;0.77;;;18.90;56.30;;;;;;5052895;28;20175;-69
2022/05/25 06:06:23;;;;;;;0.95;0.93;;;18.90;56.40;;;;;;5053679;28;20278;-68
2022/05/25 06:08:49;;;;;;;1.58;0.80;;;18.90;56.40;;;;;;5053796;28;20569;-68
2022/05/25 06:11:17;;;;;;;1.00;0.98;;;18.90;56.40;;;;;;5053235;28;20643;-68
2022/05/25 06:13:43;;;;;;;1.10;1.00;;;18.80;56.30;;;;;;5053375;28;20178;-68
2022/05/25 06:21:36;;;;;;;1.23;1.08;;;18.90;56.30;;;;;;5052930;28;20218;-68
2022/05/25 06:24:02;;;;;;;0.75;0.75;;;18.90;56.30;;;;;;5052710;28;20171;-69
2022/05/25 06:26:30;;;;;;;1.20;1.10;;;18.90;56.30;;;;;;5053218;28;20182;-68
2022/05/25 06:28:56;;;;;;;1.42;1.23;;;18.90;56.20;;;;;;5052992;28;20286;-68
2022/05/25 06:31:22;;;;;;;1.13;1.00;;;18.90;56.20;;;;;;5052489;28;20667;-68
2022/05/25 06:33:48;;;;;;;1.23;1.13;;;18.90;56.20;;;;;;5052862;28;20297;-68
2022/05/25 06:36:16;;;;;;;0.98;0.93;;;18.90;56.20;;;;;;5052935;28;20175;-68
2022/05/25 06:38:41;;;;;;;0.90;0.90;;;18.90;56.20;;;;;;5051950;28;20175;-68
2022/05/25 06:41:07;;;;;;;1.20;1.10;;;18.90;56.30;;;;;;5052545;28;20215;-68
2022/05/25 06:43:32;;;;;;;1.67;0.90;;;18.90;56.30;;;;;;5052946;28;20174;-68
2022/05/25 06:45:58;;;;;;;1.88;1.00;;;18.90;56.30;;;;;;5051723;28;20175;-67
2022/05/25 06:48:23;;;;;;;1.15;0.90;;;18.90;56.30;;;;;;5053156;28;20210;-68
2022/05/25 06:50:49;;;;;;;1.00;0.90;;;18.90;56.20;;;;;;5052538;28;20179;-67
2022/05/25 06:53:14;;;;;;;2.20;0.95;;;18.90;56.20;;;;;;5051837;28;20472;-68
2022/05/25 06:55:40;;;;;;;1.20;0.95;;;18.90;56.20;;;;;;5052429;28;20179;-68
2022/05/25 06:58:05;;;;;;;1.13;1.00;;;18.90;56.20;;;;;;5052521;28;20187;-68
2022/05/25 07:00:31;;;;;;;1.33;1.00;;;18.90;56.20;;;;;;5051643;28;20242;-68
2022/05/25 07:02:56;;;;;;;1.35;1.10;;;19.00;56.30;;;;;;5052134;28;20191;-68
2022/05/25 07:05:22;;;;;;;1.95;1.20;;;19.00;56.20;;;;;;5052520;28;20217;-68
2022/05/25 07:07:48;;;;;;;1.00;1.00;;;19.00;56.90;;;;;;5051716;28;20175;-68
2022/05/25 07:10:13;;;;;;;1.30;1.20;;;19.00;56.30;;;;;;5052229;28;20175;-71
2022/05/25 07:12:39;;;;;;;2.83;1.60;;;19.00;56.30;;;;;;5051769;28;20216;-69
2022/05/25 07:15:05;;;;;;;1.17;1.00;;;19.00;56.30;;;;;;5051388;28;20265;-68
2022/05/25 07:17:33;;;;;;;2.92;1.40;;;19.00;56.30;;;;;;5052153;28;20262;-67
2022/05/25 07:19:58;;;;;;;1.48;1.25;;;19.00;56.30;;;;;;5051040;28;20238;-68
2022/05/25 07:22:24;;;;;;;2.58;1.42;;;19.00;56.30;;;;;;5051985;28;20603;-65
2022/05/25 07:24:49;;;;;;;1.42;1.13;;;19.10;56.20;;;;;;5051378;28;20269;-68
2022/05/25 07:27:15;;;;;;;3.60;1.90;;;19.10;56.20;;;;;;5051256;28;20483;-71
2022/05/25 07:29:41;;;;;;;4.68;1.40;;;19.10;56.10;;;;;;5051624;28;20613;-70
2022/05/25 07:32:09;;;;;;;3.53;1.40;;;19.20;56.10;;;;;;5051943;28;20249;-72
2022/05/25 07:34:41;;;;;;;2.28;1.50;;;19.20;56.10;;;;;;5049653;28;20183;-73
2022/05/25 07:37:18;;;;;;;4.07;1.60;;;19.20;56.00;;;;;;5050467;28;20170;-72
2022/05/25 07:39:47;;;;;;;3.58;1.80;;;19.20;56.10;;;;;;5050134;28;20186;-73
2022/05/25 07:42:13;;;;;;;5.13;1.77;;;19.30;56.10;;;;;;5049459;28;20191;-73
2022/05/25 07:44:47;;;;;;;2.08;1.50;;;19.30;56.10;;;;;;5049981;28;20582;-70
2022/05/25 07:47:14;;;;;;;2.47;1.55;;;19.20;56.30;;;;;;5049766;28;20305;-69
2022/05/25 07:49:39;;;;;;;2.78;1.60;;;19.20;56.20;;;;;;5049917;28;20217;-68
2022/05/25 07:52:05;;;;;;;3.17;1.63;;;19.30;56.10;;;;;;5050683;28;20175;-68
2022/05/25 07:54:31;;;;;;;4.78;1.98;;;19.20;56.00;;;;;;5049530;28;20676;-70
2022/05/25 07:56:56;;;;;;;2.97;1.83;;;19.20;56.00;;;;;;5048416;28;20175;-67
2022/05/25 07:59:22;;;;;;;5.82;2.10;;;19.20;56.10;;;;;;5051227;28;20271;-68
2022/05/25 08:07:24;;;;;;;3.95;1.95;;;19.20;56.40;;;;;;5050445;28;20581;-69
2022/05/25 08:09:51;;;;;;;3.03;1.65;;;19.20;56.50;;;;;;5049085;28;20175;-69
2022/05/25 08:12:17;;;;;;;4.95;1.70;;;19.20;56.30;;;;;;5051144;28;20650;-70
2022/05/25 08:14:42;;;;;;;6.82;1.60;;;19.20;56.60;;;;;;5049839;28;20178;-71
2022/05/25 08:17:08;;;;;;;4.97;1.83;;;19.20;56.60;;;;;;5050397;28;20171;-70
2022/05/25 08:19:34;;;;;;;3.25;1.50;;;19.30;56.50;;;;;;5050982;28;20203;-71
2022/05/25 08:22:00;;;;;;;6.60;1.77;;;19.40;56.40;;;;;;5051139;28;20191;-71
2022/05/25 08:24:25;;;;;;;4.93;1.60;;;19.50;56.30;;;;;;5050390;28;20171;-70
2022/05/25 08:26:51;;;;;;;3.00;1.40;;;19.50;56.20;;;;;;5051099;28;20602;-70
2022/05/25 08:29:18;;;;;;;5.13;2.20;;;19.60;56.20;;;;;;5051278;28;20186;-69
2022/05/25 08:31:44;;;;;;;3.13;1.60;;;19.60;56.30;;;;;;5050060;28;20187;-69
2022/05/25 08:34:09;;;;;;;4.57;1.70;;;19.60;56.30;;;;;;5051471;28;20171;-69
2022/05/25 08:36:35;;;;;;;4.53;1.55;;;19.60;56.20;;;;;;5050832;28;20171;-69
2022/05/25 08:39:00;;;;;;;4.50;1.33;;;19.70;56.10;;;;;;5050319;28;20194;-66
2022/05/25 08:41:34;;;;;;;3.33;1.58;;;19.70;56.10;;;;;;5050879;28;20227;-69
2022/05/25 08:43:59;;;;;;;4.38;1.50;;;19.70;56.30;;;;;;5050888;28;20582;-70
2022/05/25 08:46:25;;;;;;;4.78;1.33;;;19.80;56.10;;;;;;5050474;28;20206;-68
2022/05/25 08:48:51;;;;;;;3.08;1.30;;;19.70;56.20;;;;;;5050687;28;20286;-69
2022/05/25 08:51:19;;;;;;;3.00;1.60;;;19.70;56.20;;;;;;5052385;28;20179;-68
2022/05/25 08:53:44;;;;;;;4.78;1.50;;;19.70;56.10;;;;;;5041131;28;20575;-68
2022/05/25 08:56:29;;;;;;;4.68;2.10;;;19.70;56.10;;;;;;5063022;28;20677;-70
2022/05/25 08:58:55;;;;;;;2.13;1.60;;;19.70;56.00;;;;;;5054562;28;20230;-70
2022/05/25 09:01:25;;;;;;;3.35;1.50;;;19.70;56.00;;;;;;5055362;28;20776;-69
2022/05/25 09:04:12;;;;;;;2.40;1.75;;;19.70;56.00;;;;;;5037143;28;20225;-69
2022/05/25 09:06:52;;;;;;;2.22;1.80;;;19.60;56.00;;;;;;5054381;28;20175;-69
2022/05/25 09:09:26;;;;;;;3.65;1.45;;;19.60;56.00;;;;;;5068210;28;20177;-68
2022/05/25 09:11:57;;;;;;;2.35;1.65;;;19.70;56.00;;;;;;5072865;28;20649;-69
2022/05/25 09:14:37;;;;;;;1.60;1.50;;;19.70;56.00;;;;;;5072685;28;20188;-70
2022/05/25 09:17:06;;;;;;;1.50;1.40;;;19.70;55.80;;;;;;5074574;28;20508;-70
2022/05/25 09:19:34;;;;;;;3.08;1.98;;;19.70;55.70;;;;;;5072983;28;20175;-72
2022/05/25 09:22:08;;;;;;;2.20;1.60;;;19.80;55.70;;;;;;5073354;28;20212;-68
2022/05/25 09:24:34;;;;;;;3.08;1.60;;;19.80;55.70;;;;;;5036017;28;20640;-69
2022/05/25 09:26:59;;;;;;;4.28;2.10;;;19.90;55.60;;;;;;5072996;28;20269;-67
2022/05/25 09:29:25;;;;;;;6.70;2.05;;;19.90;55.70;;;;;;5074161;28;20201;-70
2022/05/25 09:32:11;;;;;;;4.32;1.80;;;19.90;56.00;;;;;;5073733;28;20535;-70
2022/05/25 09:34:40;;;;;;;3.88;1.85;;;20.00;56.00;;;;;;5071670;28;20182;-70
2022/05/25 09:37:14;;;;;;;3.20;1.92;;;20.00;56.00;;;;;;5074120;28;20549;-70
2022/05/25 09:39:42;;;;;;;3.97;1.70;;;19.90;56.10;;;;;;5073663;28;20179;-70
2022/05/25 09:42:12;;;;;;;2.05;1.55;;;19.90;56.10;;;;;;5073051;28;20194;-71
2022/05/25 09:44:37;;;;;;;1.98;1.63;;;19.90;56.10;;;;;;5072272;28;20277;-69
2022/05/25 09:47:07;;;;;;;3.83;1.80;;;19.90;56.20;;;;;;5072545;28;20626;-68
2022/05/25 09:49:44;;;;;;;2.80;1.70;;;19.90;56.10;;;;;;5073131;28;20181;-69
2022/05/25 09:52:16;;;;;;;2.10;1.90;;;19.90;56.10;;;;;;5073883;28;20170;-70
2022/05/25 09:54:43;;;;;;;3.00;1.65;;;19.80;56.30;;;;;;5054982;28;20597;-71
2022/05/25 09:57:30;;;;;;;3.42;1.77;;;19.80;56.40;;;;;;5073422;28;20184;-68
2022/05/25 10:00:00;;;;;;;4.15;1.60;;;19.90;56.20;;;;;;5061413;28;20249;-69
2022/05/25 10:02:30;;;;;;;3.33;2.28;;;20.00;56.10;;;;;;5053165;28;20225;-68
2022/05/25 10:04:56;;;;;;;2.33;1.83;;;20.10;56.00;;;;;;5052293;28;20248;-69
2022/05/25 10:07:38;;;;;;;5.05;2.28;;;20.00;56.00;;;;;;5035554;28;20652;-71
2022/05/25 10:10:06;;;;;;;2.60;2.40;;;20.00;56.20;;;;;;5051963;28;20646;-68
2022/05/25 10:12:34;;;;;;;3.35;2.60;;;20.00;56.20;;;;;;5053651;28;20179;-68
2022/05/25 10:15:06;;;;;;;3.53;2.63;;;20.00;56.10;;;;;;5052966;28;20184;-68
2022/05/25 10:17:34;;;;;;;4.22;2.55;;;20.00;56.10;;;;;;5052536;28;20289;-68
2022/05/25 10:19:59;;;;;;;4.13;2.42;;;20.10;56.00;;;;;;5052911;28;20328;-68
2022/05/25 10:22:31;;;;;;;3.20;2.45;;;20.10;55.70;;;;;;5052974;28;20658;-68
2022/05/25 10:25:27;;;;;;;3.25;2.60;;;20.10;55.80;;;;;;5052214;28;20250;-68
2022/05/25 10:27:52;;;;;;;4.15;2.85;;;20.10;55.80;;;;;;5051487;28;20491;-68
2022/05/25 10:39:17;;;;;;;3.88;3.20;;;20.10;55.70;;;;;;5051020;28;20190;-70
2022/05/25 10:41:45;;;;;;;3.58;3.28;;;20.20;55.60;;;;;;5052574;28;20215;-69
2022/05/25 10:44:22;;;;;;;3.30;2.95;;;20.20;55.60;;;;;;5052303;28;20179;-70
2022/05/25 10:46:53;;;;;;;5.47;3.38;;;20.20;55.60;;;;;;5051410;28;20170;-68
2022/05/25 10:49:33;;;;;;;4.32;2.70;;;20.20;56.10;;;;;;5052865;28;20206;-68
2022/05/25 10:52:21;;;;;;;3.80;3.28;;;20.10;55.90;;;;;;5051059;28;20237;-67
2022/05/25 10:54:51;;;;;;;3.30;3.00;;;20.00;56.00;;;;;;5051428;28;20182;-68
2022/05/25 10:57:48;;;;;;;3.63;3.08;;;20.00;56.00;;;;;;5051347;28;20190;-69
2022/05/25 11:00:20;;;;;;;5.32;3.20;;;20.00;56.00;;;;;;5062684;28;20635;-70
2022/05/25 11:03:14;;;;;;;3.38;3.03;;;20.10;56.00;;;;;;5070999;28;20251;-68
2022/05/25 11:06:04;;;;;;;3.35;3.05;;;20.10;56.00;;;;;;5071248;28;20514;-68
2022/05/25 11:08:52;;;;;;;5.03;3.40;;;20.10;56.20;;;;;;5055600;28;20171;-67
2022/05/25 11:11:46;;;;;;;3.42;3.08;;;20.00;56.40;;;;;;5070959;28;20182;-67
2022/05/25 11:14:36;;;;;;;3.33;2.97;;;19.90;56.40;;;;;;5049662;28;20179;-68
2022/05/25 11:17:30;;;;;;;3.95;3.50;;;19.90;56.60;;;;;;5070733;28;20269;-67
2022/05/25 11:20:18;;;;;;;4.07;3.40;;;19.80;56.70;;;;;;5069926;28;20178;-66
2022/05/25 11:23:20;;;;;;;3.83;3.22;;;19.90;56.90;;;;;;5070931;28;20610;-72
2022/05/25 11:25:57;;;;;;;5.53;3.40;;;19.90;56.70;;;;;;5062734;28;20404;-73
2022/05/25 11:28:45;;;;;;;10.98;3.63;;;19.90;56.60;;;;;;5069849;28;20574;-69
2022/05/25 11:31:33;;;;;;;5.25;3.10;;;20.00;56.40;;;;;;5070854;28;20174;-69
2022/05/25 11:34:24;;;;;;;5.25;3.97;;;20.10;56.10;;;;;;5069640;28;20179;-71
2022/05/25 11:37:20;;;;;;;6.13;3.83;;;20.10;56.80;;;;;;5070299;28;20182;-71
2022/05/25 11:40:09;;;;;;;6.40;3.53;;;20.00;56.30;;;;;;5071219;28;20197;-70
2022/05/25 11:43:06;;;;;;;5.90;3.40;;;20.00;56.30;;;;;;5071438;28;20174;-69
2022/05/25 11:45:53;;;;;;;5.57;3.72;;;20.10;56.10;;;;;;5055516;28;20630;-69
2022/05/25 11:48:53;;;;;;;5.50;3.00;;;20.10;56.10;;;;;;5069932;28;20265;-68
2022/05/25 11:51:24;;;;;;;4.05;3.10;;;20.10;56.00;;;;;;5070666;28;20221;-69
2022/05/25 11:54:19;;;;;;;4.40;3.00;;;20.10;56.00;;;;;;5053901;28;20175;-69
2022/05/25 11:57:28;;;;;;;3.70;2.90;;;20.10;56.10;;;;;;5051388;28;20195;-70
2022/05/25 12:00:10;;;;;;;5.40;3.08;;;20.00;56.10;;;;;;5038668;28;20541;-71
2022/05/25 12:02:44;;;;;;;3.63;3.00;;;20.00;56.10;;;;;;5012399;28;20538;-71
2022/05/25 12:05:29;;;;;;;3.67;3.17;;;20.10;55.90;;;;;;5019184;28;20576;-70
2022/05/25 12:08:13;;;;;;;3.00;2.67;;;20.20;55.70;;;;;;5049942;28;20224;-69
2022/05/25 12:10:47;;;;;;;3.22;2.67;;;20.30;55.40;;;;;;5049014;28;20189;-69
2022/05/25 12:13:21;;;;;;;2.72;2.53;;;20.40;55.30;;;;;;5050144;28;20197;-71
2022/05/25 12:16:12;;;;;;;5.53;3.40;;;20.50;55.30;;;;;;5033040;28;20642;-68
2022/05/25 12:18:59;;;;;;;3.35;2.88;;;20.50;55.20;;;;;;5049601;28;20185;-68
2022/05/25 12:21:36;;;;;;;3.22;2.70;;;20.60;55.10;;;;;;5051031;28;20272;-69
2022/05/25 12:24:07;;;;;;;4.82;3.03;;;20.60;54.90;;;;;;5049535;28;20587;-68
2022/05/25 12:26:34;;;;;;;3.83;2.78;;;20.70;54.90;;;;;;5050051;28;20175;-71
2022/05/25 12:29:22;;;;;;;7.22;2.40;;;20.70;54.60;;;;;;5049779;28;20179;-65
2022/05/25 12:31:50;;;;;;;4.20;2.90;;;20.80;54.60;;;;;;5049956;28;20175;-70
2022/05/25 12:34:17;;;;;;;4.63;2.70;;;20.80;54.70;;;;;;5037310;28;20209;-73
2022/05/25 12:36:43;;;;;;;4.00;2.58;;;20.90;54.70;;;;;;5052764;28;20700;-73
2022/05/25 12:39:09;;;;;;;5.25;2.53;;;20.90;54.50;;;;;;5053735;28;20333;-70
2022/05/25 12:41:36;;;;;;;3.65;2.28;;;20.80;54.70;;;;;;5053558;28;20272;-70
2022/05/25 12:50:35;;;;;;;4.75;2.75;;;20.70;55.10;;;;;;5053732;28;20640;-69
2022/05/25 12:53:39;;;;;;;3.38;2.47;;;20.60;55.10;;;;;;5054763;28;20622;-71
2022/05/25 12:56:19;;;;;;;5.45;2.50;;;20.60;55.10;;;;;;5054767;28;20171;-72
2022/05/25 12:58:48;;;;;;;7.93;2.60;;;20.60;55.10;;;;;;5053591;28;20356;-72
2022/05/25 13:01:28;;;;;;;5.75;2.60;;;20.50;55.20;;;;;;5074844;28;20206;-74
2022/05/25 13:03:54;;;;;;;6.05;2.47;;;20.50;55.20;;;;;;5074484;28;20244;-72
2022/05/25 13:06:38;;;;;;;3.33;2.50;;;20.50;55.30;;;;;;5073882;28;20235;-71
2022/05/25 13:09:10;;;;;;;4.18;2.17;;;20.40;55.40;;;;;;5074413;28;20644;-72
2022/05/25 13:11:42;;;;;;;3.88;2.70;;;20.40;55.60;;;;;;5073926;28;20187;-71
2022/05/25 13:14:16;;;;;;;4.40;2.33;;;20.40;55.70;;;;;;5074450;28;20266;-71
2022/05/25 13:16:42;;;;;;;5.10;2.70;;;20.40;55.80;;;;;;5074095;28;20247;-74
2022/05/25 13:19:17;;;;;;;3.03;2.00;;;20.40;55.80;;;;;;5073620;28;20621;-74
2022/05/25 13:22:06;;;;;;;2.35;2.17;;;20.40;55.80;;;;;;5073719;28;20214;-68
2022/05/25 13:24:57;;;;;;;3.03;2.00;;;20.30;55.80;;;;;;5066549;28;20189;-76
2022/05/25 13:28:09;;;;;;;3.22;2.03;;;20.30;56.00;;;;;;5072515;28;20258;-76
2022/05/25 13:30:38;;;;;;;3.50;2.08;;;20.30;56.00;;;;;;5072771;28;20174;-72
2022/05/25 13:33:20;;;;;;;3.88;2.15;;;20.20;56.00;;;;;;5073457;28;20171;-74
2022/05/25 13:35:53;;;;;;;2.70;2.05;;;20.20;56.10;;;;;;5072664;28;20248;-75
2022/05/25 13:38:33;;;;;;;3.25;1.92;;;20.10;56.00;;;;;;5056971;28;20192;-74
2022/05/25 13:41:10;;;;;;;4.43;2.15;;;20.10;55.90;;;;;;5071209;28;20737;-74